Time;durP1;ratioP1;P1;durP2;ratioP2;P2;SDS_P1;SDS_P2;PMS_P1;PMS_P2;Temp;Humidity;BMP_temperature;BMP_pressure;BME280_temperature;BME280_humidity;BME280_pressure;Samples;Min_cycle;Max_cycle;Signal;HPM_P1;HPM_P2
2022/10/18 00:00:15;;;;;;;2.37;2.20;;;14.60;99.90;;;;;;5111824;28;20668;-86
2022/10/18 00:02:42;;;;;;;2.47;2.27;;;14.60;99.90;;;;;;5111784;28;20645;-86
2022/10/18 00:05:09;;;;;;;2.90;2.40;;;14.60;99.90;;;;;;5111799;28;21005;-86
2022/10/18 00:07:36;;;;;;;1.90;1.80;;;14.50;99.90;;;;;;5111811;28;20673;-85
2022/10/18 00:10:04;;;;;;;2.40;1.93;;;14.60;99.90;;;;;;5112337;28;20656;-85
2022/10/18 00:12:32;;;;;;;2.33;2.13;;;14.50;99.90;;;;;;5110496;28;21224;-86
2022/10/18 00:15:01;;;;;;;2.60;2.07;;;14.50;99.90;;;;;;5112287;28;20715;-86
2022/10/18 00:17:28;;;;;;;2.83;2.10;;;15.30;99.90;;;;;;5111106;28;21262;-86
2022/10/18 00:19:55;;;;;;;5.43;2.47;;;14.50;99.90;;;;;;5112046;28;20653;-85
2022/10/18 00:22:22;;;;;;;5.97;2.63;;;15.40;99.90;;;;;;5111988;27;20981;-86
2022/10/18 00:24:49;;;;;;;2.37;2.23;;;14.50;99.90;;;;;;5111606;28;20632;-86
2022/10/18 00:27:16;;;;;;;3.03;2.83;;;14.50;99.90;;;;;;5111715;28;20714;-86
2022/10/18 00:29:43;;;;;;;2.70;2.17;;;14.50;99.90;;;;;;5111742;28;20616;-86
2022/10/18 00:32:11;;;;;;;2.10;2.00;;;14.50;99.90;;;;;;5111032;28;21045;-86
2022/10/18 00:34:39;;;;;;;4.30;2.93;;;14.40;99.90;;;;;;5111746;28;20622;-86
2022/10/18 00:37:06;;;;;;;5.93;2.47;;;14.50;99.90;;;;;;5111211;28;20596;-85
2022/10/18 00:39:33;;;;;;;3.77;2.00;;;14.50;99.90;;;;;;5111523;28;20611;-86
2022/10/18 00:42:00;;;;;;;2.70;2.50;;;14.40;99.90;;;;;;5111638;28;21033;-86
2022/10/18 00:45:03;;;;;;;3.00;2.70;;;14.40;99.90;;;;;;5111683;28;20626;-86
2022/10/18 00:47:32;;;;;;;1.87;1.77;;;14.40;99.90;;;;;;5111061;28;21176;-87
2022/10/18 00:50:04;;;;;;;2.70;2.40;;;15.50;99.90;;;;;;5111684;28;20647;-86
2022/10/18 00:52:35;;;;;;;3.33;2.00;;;14.40;99.90;;;;;;5111561;28;20654;-87
2022/10/18 00:55:03;;;;;;;2.90;2.00;;;14.40;99.90;;;;;;5110768;28;20614;-86
2022/10/18 00:57:30;;;;;;;2.60;2.40;;;14.40;99.90;;;;;;5110671;28;20711;-86
2022/10/18 00:59:57;;;;;;;2.90;2.03;;;14.40;99.90;;;;;;5111161;28;20651;-86
2022/10/18 01:02:24;;;;;;;1.83;1.73;;;14.50;99.90;;;;;;5111151;28;20619;-86
2022/10/18 01:04:52;;;;;;;2.23;2.03;;;14.60;99.90;;;;;;5110340;28;20603;-86
2022/10/18 01:07:33;;;;;;;2.67;2.23;;;14.50;99.90;;;;;;5110414;28;21227;-85
2022/10/18 01:10:09;;;;;;;1.30;1.20;;;14.50;99.90;;;;;;5111196;28;20592;-86
2022/10/18 01:12:44;;;;;;;2.63;2.03;;;14.40;99.90;;;;;;5110955;28;20692;-85
2022/10/18 01:15:16;;;;;;;1.90;1.70;;;14.40;99.90;;;;;;5111296;28;20620;-85
2022/10/18 01:17:52;;;;;;;1.23;1.13;;;14.40;99.90;;;;;;5110601;28;20706;-86
2022/10/18 01:20:55;;;;;;;2.90;1.63;;;14.40;99.90;;;;;;5111135;28;20615;-85
2022/10/18 01:23:40;;;;;;;2.60;1.80;;;14.50;99.90;;;;;;5105932;28;20710;-85
2022/10/18 01:26:21;;;;;;;3.53;2.27;;;14.50;99.90;;;;;;5115117;28;20643;-85
2022/10/18 01:28:59;;;;;;;1.30;1.20;;;14.50;99.90;;;;;;5114900;28;20603;-86
2022/10/18 01:31:32;;;;;;;2.50;2.30;;;14.60;99.90;;;;;;5115097;28;20600;-86
2022/10/18 01:34:03;;;;;;;2.60;2.10;;;14.60;99.90;;;;;;5115272;28;20650;-86
2022/10/18 01:36:34;;;;;;;2.27;1.70;;;14.60;99.90;;;;;;5115556;28;20637;-86
2022/10/18 01:39:05;;;;;;;2.17;1.60;;;14.60;99.90;;;;;;5114010;28;20638;-85
2022/10/18 01:41:35;;;;;;;1.80;1.67;;;14.70;99.90;;;;;;5114616;28;20623;-86
2022/10/18 01:44:05;;;;;;;2.00;1.50;;;14.70;99.90;;;;;;5114747;28;21074;-85
2022/10/18 01:46:34;;;;;;;1.97;1.60;;;14.70;99.90;;;;;;5115128;28;20677;-85
2022/10/18 01:49:02;;;;;;;2.63;2.50;;;14.70;99.90;;;;;;5113783;28;21073;-85
2022/10/18 01:51:31;;;;;;;2.00;1.80;;;14.80;99.90;;;;;;5113858;28;20604;-87
2022/10/18 01:53:59;;;;;;;3.17;1.67;;;14.80;99.90;;;;;;5114798;28;20685;-86
2022/10/18 01:56:36;;;;;;;2.90;1.50;;;14.90;99.90;;;;;;5108771;28;20612;-85
2022/10/18 01:59:14;;;;;;;2.00;1.50;;;14.90;99.90;;;;;;5104124;28;20718;-85
2022/10/18 02:01:52;;;;;;;1.57;1.47;;;14.80;99.90;;;;;;5114458;28;20607;-86
2022/10/18 02:04:28;;;;;;;1.80;1.70;;;14.90;99.90;;;;;;5114678;27;20963;-85
2022/10/18 02:07:00;;;;;;;1.50;1.23;;;14.90;99.90;;;;;;5113948;28;20622;-84
2022/10/18 02:09:33;;;;;;;4.67;1.80;;;14.70;99.90;;;;;;5114607;28;20980;-85
2022/10/18 02:12:02;;;;;;;2.00;1.63;;;14.80;99.90;;;;;;5114793;28;21194;-86
2022/10/18 02:14:29;;;;;;;1.97;1.77;;;14.80;99.90;;;;;;5113847;28;20757;-85
2022/10/18 02:17:03;;;;;;;3.93;1.50;;;14.80;99.90;;;;;;5114166;28;20608;-85
2022/10/18 02:19:32;;;;;;;1.73;1.63;;;14.90;99.90;;;;;;5114417;28;20608;-85
2022/10/18 02:22:00;;;;;;;1.70;1.60;;;14.80;99.90;;;;;;5114276;27;21185;-85
2022/10/18 02:24:33;;;;;;;1.43;1.33;;;14.80;99.90;;;;;;5114025;28;21124;-85
2022/10/18 02:27:00;;;;;;;1.20;1.10;;;;;;;;;;5113598;28;20656;-85
2022/10/18 02:29:28;;;;;;;1.43;1.33;;;14.80;99.90;;;;;;5113755;28;20626;-85
2022/10/18 02:32:03;;;;;;;2.67;1.70;;;14.80;99.90;;;;;;5114045;28;20669;-85
2022/10/18 02:34:36;;;;;;;1.60;1.50;;;14.80;99.90;;;;;;5113623;28;20662;-85
2022/10/18 02:37:04;;;;;;;1.50;1.40;;;14.80;99.90;;;;;;5112196;28;20603;-85
2022/10/18 02:39:34;;;;;;;2.00;1.50;;;14.80;99.90;;;;;;5093157;28;20604;-85
2022/10/18 02:42:05;;;;;;;1.03;1.03;;;14.70;99.90;;;;;;5093489;28;20597;-84
2022/10/18 02:44:32;;;;;;;2.37;1.93;;;14.70;99.90;;;;;;5093901;28;20636;-88
2022/10/18 02:47:01;;;;;;;1.63;1.53;;;14.80;99.90;;;;;;5093110;28;20601;-85
2022/10/18 02:49:28;;;;;;;4.70;1.77;;;14.80;99.90;;;;;;5105732;28;20661;-85
2022/10/18 02:51:55;;;;;;;1.63;1.53;;;14.80;99.90;;;;;;5113523;28;20620;-85
2022/10/18 02:54:23;;;;;;;1.77;1.50;;;14.80;99.90;;;;;;5113225;28;20652;-84
2022/10/18 02:56:50;;;;;;;3.60;1.83;;;14.90;99.90;;;;;;5103395;28;20636;-85
2022/10/18 02:59:17;;;;;;;1.40;1.27;;;15.60;99.90;;;;;;5104189;28;20628;-85
2022/10/18 03:01:44;;;;;;;3.20;2.00;;;14.80;99.90;;;;;;5113741;28;20611;-86
2022/10/18 03:04:13;;;;;;;1.43;1.33;;;14.80;99.90;;;;;;5112877;28;20612;-86
2022/10/18 03:06:41;;;;;;;1.60;1.50;;;14.80;99.90;;;;;;5113303;28;20973;-85
2022/10/18 03:09:08;;;;;;;1.80;1.70;;;14.80;99.90;;;;;;5113339;28;20664;-86
2022/10/18 03:11:35;;;;;;;2.53;2.13;;;14.80;99.90;;;;;;5113179;28;20720;-85
2022/10/18 03:14:02;;;;;;;3.17;1.90;;;14.80;99.90;;;;;;5112667;28;20651;-85
2022/10/18 03:16:28;;;;;;;1.70;1.50;;;14.90;99.90;;;;;;5112942;28;20624;-85
2022/10/18 03:18:55;;;;;;;2.20;1.80;;;14.80;99.90;;;;;;5112432;28;20982;-86
2022/10/18 03:21:24;;;;;;;2.80;1.83;;;14.90;99.90;;;;;;5113150;28;20707;-86
2022/10/18 03:23:50;;;;;;;1.97;1.47;;;14.90;99.90;;;;;;5113035;28;20971;-86
2022/10/18 03:26:17;;;;;;;3.17;1.63;;;;;;;;;;5112806;28;20600;-86
2022/10/18 03:28:44;;;;;;;2.10;1.83;;;15.00;99.90;;;;;;5112281;28;20680;-85
2022/10/18 03:31:11;;;;;;;1.90;1.80;;;15.00;99.90;;;;;;5112513;28;20636;-86
2022/10/18 03:33:38;;;;;;;1.67;1.57;;;15.00;99.90;;;;;;5112471;27;20658;-86
2022/10/18 03:36:05;;;;;;;1.40;1.30;;;15.00;99.90;;;;;;5112881;27;20627;-85
2022/10/18 03:38:33;;;;;;;2.03;1.87;;;15.10;99.90;;;;;;5112218;28;20984;-86
2022/10/18 03:41:00;;;;;;;2.77;1.50;;;15.10;99.90;;;;;;5112759;28;20616;-86
2022/10/18 03:43:27;;;;;;;1.83;1.73;;;15.10;99.90;;;;;;5112384;28;20623;-85
2022/10/18 03:45:55;;;;;;;2.00;1.80;;;15.30;99.90;;;;;;5111771;28;21182;-85
2022/10/18 03:48:21;;;;;;;3.20;2.40;;;15.20;99.90;;;;;;5111445;28;20647;-86
2022/10/18 03:50:48;;;;;;;1.53;1.40;;;15.10;99.90;;;;;;5112448;28;20651;-85
2022/10/18 03:53:15;;;;;;;2.80;1.70;;;15.90;99.90;;;;;;5112470;28;20717;-87
2022/10/18 03:55:43;;;;;;;2.07;1.70;;;15.10;99.90;;;;;;5112316;28;20619;-86
2022/10/18 03:58:11;;;;;;;2.03;1.87;;;15.00;99.90;;;;;;5093357;28;20615;-85
2022/10/18 04:00:38;;;;;;;1.47;1.00;;;15.10;99.90;;;;;;5111313;28;20637;-85
2022/10/18 04:03:05;;;;;;;2.03;1.67;;;15.10;99.90;;;;;;5112095;28;21239;-85
2022/10/18 04:05:33;;;;;;;2.03;1.83;;;15.00;99.90;;;;;;5112341;28;20711;-86
2022/10/18 04:08:00;;;;;;;2.40;2.20;;;15.00;99.90;;;;;;5112950;27;20615;-87
2022/10/18 04:10:27;;;;;;;2.73;2.03;;;15.40;99.90;;;;;;5112284;28;20604;-85
2022/10/18 04:12:55;;;;;;;2.03;1.33;;;14.90;99.90;;;;;;5111326;28;20627;-87
2022/10/18 04:15:22;;;;;;;1.30;1.20;;;14.90;99.90;;;;;;5113089;27;20665;-86
2022/10/18 04:17:48;;;;;;;3.67;1.90;;;14.90;99.90;;;;;;5131358;27;20630;-86
2022/10/18 04:20:15;;;;;;;1.97;1.83;;;14.90;99.90;;;;;;5117128;27;20620;-85
2022/10/18 04:22:42;;;;;;;1.63;1.50;;;14.90;99.90;;;;;;5111684;28;21165;-86
2022/10/18 04:25:09;;;;;;;1.90;1.50;;;14.90;99.90;;;;;;5111565;28;20703;-85
2022/10/18 04:27:36;;;;;;;1.70;1.60;;;14.70;99.90;;;;;;5110668;28;20999;-85
2022/10/18 04:30:06;;;;;;;2.13;1.70;;;15.00;99.90;;;;;;5111868;28;20596;-85
2022/10/18 04:32:34;;;;;;;2.07;1.60;;;14.70;99.90;;;;;;5111193;28;20681;-85
2022/10/18 04:35:01;;;;;;;2.07;1.67;;;14.70;99.90;;;;;;5116662;27;20655;-85
2022/10/18 04:37:28;;;;;;;2.03;1.37;;;14.90;99.90;;;;;;5119099;27;20643;-84
2022/10/18 04:39:54;;;;;;;5.07;1.83;;;14.30;99.90;;;;;;5122167;27;20684;-85
2022/10/18 04:42:22;;;;;;;2.20;1.57;;;14.30;99.90;;;;;;5120040;27;21199;-85
2022/10/18 04:44:48;;;;;;;1.43;1.37;;;15.40;99.90;;;;;;5115364;27;20616;-85
2022/10/18 04:47:19;;;;;;;1.47;1.10;;;14.30;99.90;;;;;;5115220;27;20662;-85
2022/10/18 04:49:46;;;;;;;4.07;1.93;;;14.30;99.90;;;;;;5098673;28;20624;-85
2022/10/18 04:52:13;;;;;;;2.83;1.60;;;14.30;99.90;;;;;;5102524;28;20706;-84
2022/10/18 04:54:40;;;;;;;2.13;1.80;;;14.30;99.90;;;;;;5103147;27;20651;-84
2022/10/18 04:57:10;;;;;;;3.03;2.30;;;14.30;99.90;;;;;;5102588;28;20704;-85
2022/10/18 04:59:37;;;;;;;2.50;1.87;;;;;;;;;;5104981;28;20613;-85
2022/10/18 05:02:04;;;;;;;2.30;2.20;;;14.40;99.90;;;;;;5111533;28;20660;-87
2022/10/18 05:04:33;;;;;;;1.87;1.77;;;14.50;99.90;;;;;;5111138;28;20619;-87
2022/10/18 05:07:01;;;;;;;1.60;1.40;;;;;;;;;;5095811;28;20809;-86
2022/10/18 05:09:28;;;;;;;5.07;2.33;;;14.50;99.90;;;;;;5096139;28;20627;-86
2022/10/18 05:11:55;;;;;;;3.17;1.87;;;;;;;;;;5108333;28;21022;-85
2022/10/18 05:14:22;;;;;;;2.70;1.97;;;;;;;;;;5108441;28;20659;-86
2022/10/18 05:16:50;;;;;;;2.70;1.92;;;14.40;99.90;;;;;;5108622;28;20739;-86
2022/10/18 05:19:17;;;;;;;1.80;1.40;;;14.40;99.90;;;;;;5110043;28;20198;-85
2022/10/18 05:21:45;;;;;;;1.87;1.77;;;14.30;99.90;;;;;;5110403;28;20641;-87
2022/10/18 05:24:12;;;;;;;2.97;2.03;;;;;;;;;;5111163;28;20626;-87
2022/10/18 05:26:40;;;;;;;6.60;1.30;;;;;;;;;;5111473;28;20612;-87
2022/10/18 05:29:07;;;;;;;3.53;2.50;;;;;;;;;;5111189;28;20655;-86
2022/10/18 05:31:34;;;;;;;2.00;1.47;;;14.40;99.90;;;;;;5110265;28;20615;-87
2022/10/18 05:34:02;;;;;;;1.50;1.40;;;;;;;;;;5109932;28;20716;-86
2022/10/18 05:36:29;;;;;;;4.55;2.60;;;;;;;;;;5107707;28;20788;-87
2022/10/18 05:38:57;;;;;;;1.97;1.77;;;14.50;99.90;;;;;;5107717;28;20793;-85
2022/10/18 05:41:24;;;;;;;1.60;1.33;;;;;;;;;;5107184;28;21605;-87
2022/10/18 05:43:52;;;;;;;1.63;1.53;;;;;;;;;;5107852;28;20680;-86
2022/10/18 05:46:19;;;;;;;9.02;2.00;;;;;;;;;;5109266;28;20731;-87
2022/10/18 05:48:51;;;;;;;1.10;1.10;;;14.60;99.90;;;;;;5107598;28;20201;-87
2022/10/18 05:51:18;;;;;;;1.65;1.30;;;;;;;;;;5110099;28;20732;-87
2022/10/18 05:53:45;;;;;;;3.57;2.00;;;;;;;;;;5110997;28;20224;-87
2022/10/18 05:56:14;;;;;;;1.57;1.40;;;14.60;99.90;;;;;;5110317;28;20660;-87
2022/10/18 05:58:49;;;;;;;2.03;1.83;;;14.50;99.90;;;;;;5101087;28;20714;-87
2022/10/18 06:01:16;;;;;;;2.90;1.97;;;;;;;;;;5110451;28;20602;-87
2022/10/18 06:03:43;;;;;;;2.03;1.80;;;14.50;99.90;;;;;;5110595;28;20612;-86
2022/10/18 06:06:12;;;;;;;2.00;1.33;;;14.50;99.90;;;;;;5110816;28;20612;-87
2022/10/18 06:08:40;;;;;;;3.47;1.50;;;15.70;99.90;;;;;;5110101;28;20596;-87
2022/10/18 06:11:08;;;;;;;1.70;1.60;;;14.50;99.90;;;;;;5111801;28;20675;-86
2022/10/18 06:13:40;;;;;;;2.43;2.20;;;14.60;99.90;;;;;;5113669;28;20607;-85
2022/10/18 06:16:07;;;;;;;1.87;1.77;;;14.60;99.90;;;;;;5113320;28;21270;-85
2022/10/18 06:18:35;;;;;;;2.40;1.57;;;;;;;;;;5113759;28;20631;-86
2022/10/18 06:21:02;;;;;;;3.13;2.63;;;;;;;;;;5114311;28;20619;-86
2022/10/18 06:23:29;;;;;;;1.50;1.40;;;13.10;99.90;;;;;;5113571;28;20648;-86
2022/10/18 06:25:59;;;;;;;2.63;2.20;;;14.80;99.90;;;;;;5113427;28;20649;-86
2022/10/18 06:28:26;;;;;;;2.03;1.87;;;;;;;;;;5112515;28;20616;-86
2022/10/18 06:30:55;;;;;;;1.97;1.77;;;14.90;99.90;;;;;;5113609;28;20612;-83
2022/10/18 06:33:22;;;;;;;1.97;1.47;;;;;;;;;;5113271;28;20726;-87
2022/10/18 06:35:57;;;;;;;2.85;2.65;;;15.00;99.90;;;;;;5112690;28;20796;-87
2022/10/18 06:38:27;;;;;;;2.30;2.07;;;15.30;99.90;;;;;;5113746;28;20225;-88
2022/10/18 06:40:58;;;;;;;1.90;1.80;;;15.40;99.90;;;;;;5112949;28;20607;-88
2022/10/18 06:43:28;;;;;;;1.60;1.50;;;15.40;99.90;;;;;;5113218;28;20702;-87
2022/10/18 06:45:56;;;;;;;2.13;1.50;;;15.80;99.90;;;;;;5113451;28;20619;-88
2022/10/18 06:48:24;;;;;;;1.63;1.53;;;;;;;;;;5112931;28;20626;-84
2022/10/18 06:50:52;;;;;;;2.50;2.00;;;15.80;99.90;;;;;;5112577;28;20634;-82
2022/10/18 06:53:19;;;;;;;1.80;1.67;;;15.60;99.90;;;;;;5112519;28;21072;-84
2022/10/18 06:55:46;;;;;;;2.30;2.07;;;15.90;99.90;;;;;;5112526;28;20659;-83
2022/10/18 06:58:13;;;;;;;1.27;1.17;;;15.80;99.90;;;;;;5112637;28;20657;-83
2022/10/18 07:00:40;;;;;;;1.90;1.60;;;16.10;99.90;;;;;;5112734;28;20711;-81
2022/10/18 07:03:08;;;;;;;1.27;1.20;;;16.10;99.90;;;;;;5112666;28;20616;-82
2022/10/18 07:05:35;;;;;;;1.60;1.50;;;16.10;99.90;;;;;;5112511;28;20719;-84
2022/10/18 07:08:01;;;;;;;2.70;1.87;;;16.20;99.90;;;;;;5111807;28;20612;-81
2022/10/18 07:10:28;;;;;;;2.33;1.53;;;16.20;99.90;;;;;;5112951;28;20635;-85
2022/10/18 07:12:56;;;;;;;1.87;1.50;;;16.20;99.90;;;;;;5113146;28;20677;-82
2022/10/18 07:15:23;;;;;;;2.13;1.73;;;16.20;99.90;;;;;;5112682;28;20671;-84
2022/10/18 07:17:50;;;;;;;1.80;1.57;;;16.30;99.90;;;;;;5112656;28;20608;-85
2022/10/18 07:20:18;;;;;;;1.10;1.00;;;16.30;99.90;;;;;;5113043;28;20630;-84
2022/10/18 07:22:45;;;;;;;2.10;1.77;;;16.30;99.90;;;;;;5112108;28;21029;-83
2022/10/18 07:25:12;;;;;;;1.17;1.10;;;;;;;;;;5113076;28;20603;-85
2022/10/18 07:27:41;;;;;;;1.57;1.37;;;16.50;99.90;;;;;;5112327;28;20619;-85
2022/10/18 07:30:10;;;;;;;2.40;1.70;;;16.50;99.90;;;;;;5112808;28;20611;-84
2022/10/18 07:32:37;;;;;;;1.60;1.40;;;16.60;99.90;;;;;;5113114;28;20664;-83
2022/10/18 07:35:04;;;;;;;2.13;1.30;;;16.60;99.90;;;;;;5111637;28;20651;-86
2022/10/18 07:37:33;;;;;;;1.67;1.57;;;16.60;99.90;;;;;;5112809;28;20651;-84
2022/10/18 07:39:59;;;;;;;2.17;1.57;;;16.40;99.90;;;;;;5112726;28;20715;-84
2022/10/18 07:42:26;;;;;;;1.70;1.33;;;16.50;99.90;;;;;;5112428;28;20723;-85
2022/10/18 07:44:53;;;;;;;2.60;2.35;;;16.60;99.90;;;;;;5110929;28;20740;-82
2022/10/18 07:47:20;;;;;;;5.00;2.00;;;16.70;99.90;;;;;;5111704;28;20255;-83
2022/10/18 07:49:47;;;;;;;5.90;1.93;;;16.60;99.90;;;;;;5110738;28;20655;-83
2022/10/18 07:52:13;;;;;;;1.70;1.60;;;16.80;99.90;;;;;;5110895;28;21302;-84
2022/10/18 07:54:42;;;;;;;4.27;3.83;;;16.80;99.90;;;;;;5111340;28;20644;-83
2022/10/18 07:57:08;;;;;;;2.87;2.67;;;16.80;99.90;;;;;;5111726;28;20664;-84
2022/10/18 07:59:35;;;;;;;4.83;2.00;;;17.10;99.90;;;;;;5111381;28;20636;-83
2022/10/18 08:02:02;;;;;;;1.97;1.70;;;16.90;99.90;;;;;;5111721;28;21161;-86
2022/10/18 08:04:29;;;;;;;1.53;1.43;;;17.00;99.90;;;;;;5111303;28;20645;-83
2022/10/18 08:06:56;;;;;;;2.73;1.80;;;17.00;99.90;;;;;;5111417;28;20676;-83
2022/10/18 08:09:23;;;;;;;1.63;1.53;;;17.00;99.90;;;;;;5111798;28;20604;-83
2022/10/18 08:11:51;;;;;;;1.60;1.50;;;17.10;99.90;;;;;;5112187;28;20627;-83
2022/10/18 08:14:18;;;;;;;3.47;1.60;;;17.10;99.90;;;;;;5112103;28;20615;-83
2022/10/18 08:16:44;;;;;;;1.27;1.20;;;17.20;99.90;;;;;;5110233;28;20699;-83
2022/10/18 08:19:11;;;;;;;2.30;1.77;;;17.30;99.90;;;;;;5111781;28;20654;-82
2022/10/18 08:21:38;;;;;;;2.30;2.03;;;17.30;99.90;;;;;;5111452;28;20627;-82
2022/10/18 08:24:05;;;;;;;2.53;1.40;;;17.30;99.90;;;;;;5111618;28;20623;-84
2022/10/18 08:26:32;;;;;;;1.40;1.37;;;17.40;99.90;;;;;;5111725;28;20644;-83
2022/10/18 08:29:00;;;;;;;1.30;1.20;;;17.40;99.90;;;;;;5111056;28;20694;-85
2022/10/18 08:31:27;;;;;;;1.60;1.50;;;17.50;99.90;;;;;;5110461;28;20727;-82
2022/10/18 08:33:55;;;;;;;2.97;2.03;;;17.60;99.90;;;;;;5110666;28;20628;-83
2022/10/18 08:36:23;;;;;;;2.23;1.90;;;;;;;;;;5111473;28;20643;-85
2022/10/18 08:38:49;;;;;;;1.80;1.67;;;17.60;99.90;;;;;;5111155;28;20665;-83
2022/10/18 08:41:40;;;;;;;3.23;2.50;;;17.70;99.90;;;;;;5111510;28;21177;-84
2022/10/18 08:44:15;;;;;;;1.73;1.10;;;17.70;99.90;;;;;;5107741;28;20739;-83
2022/10/18 08:46:45;;;;;;;1.63;1.53;;;17.80;99.90;;;;;;5110966;28;20714;-82
2022/10/18 08:49:25;;;;;;;1.60;1.37;;;17.80;99.90;;;;;;5111078;28;20616;-84
2022/10/18 08:51:53;;;;;;;1.20;1.10;;;17.80;99.90;;;;;;5110842;28;21055;-84
2022/10/18 08:54:29;;;;;;;1.50;1.40;;;17.90;99.90;;;;;;5111181;28;20646;-84
2022/10/18 08:56:59;;;;;;;2.93;1.57;;;17.90;99.90;;;;;;5110887;28;21256;-85
2022/10/18 08:59:34;;;;;;;2.83;1.97;;;17.90;99.90;;;;;;5111207;28;20651;-85
2022/10/18 09:02:10;;;;;;;1.77;1.67;;;17.90;99.90;;;;;;5111278;28;20718;-82
2022/10/18 09:04:46;;;;;;;1.53;1.30;;;17.90;99.90;;;;;;5109678;28;21409;-81
2022/10/18 09:07:42;;;;;;;1.43;1.33;;;18.10;99.90;;;;;;5111077;28;21373;-81
2022/10/18 09:10:19;;;;;;;2.00;1.13;;;18.10;99.90;;;;;;5111262;28;20647;-82
2022/10/18 09:13:06;;;;;;;2.57;1.70;;;18.10;99.90;;;;;;5110920;28;20658;-84
2022/10/18 09:15:44;;;;;;;1.60;1.27;;;18.30;99.90;;;;;;5111130;28;20659;-83
2022/10/18 09:18:28;;;;;;;2.20;2.00;;;18.50;99.90;;;;;;5110917;28;20707;-83
2022/10/18 09:20:58;;;;;;;2.00;1.80;;;18.60;99.90;;;;;;5110901;28;20607;-85
2022/10/18 09:23:39;;;;;;;1.90;1.70;;;18.70;99.90;;;;;;5110642;28;20640;-83
2022/10/18 09:26:10;;;;;;;2.23;2.10;;;18.80;99.90;;;;;;5111195;28;20639;-83
2022/10/18 09:28:44;;;;;;;2.10;1.90;;;18.80;99.90;;;;;;5110706;28;20711;-84
2022/10/18 09:31:18;;;;;;;1.40;1.30;;;18.90;99.90;;;;;;5110998;28;20607;-83
2022/10/18 09:33:53;;;;;;;1.77;1.63;;;19.10;99.90;;;;;;5110092;28;20695;-82
2022/10/18 09:36:23;;;;;;;2.20;1.70;;;19.20;99.90;;;;;;5110546;28;20687;-82
2022/10/18 09:38:53;;;;;;;2.07;1.23;;;19.20;99.90;;;;;;5109892;28;20702;-82
2022/10/18 09:41:25;;;;;;;2.20;1.80;;;19.40;99.90;;;;;;5110710;28;20972;-83
2022/10/18 09:43:55;;;;;;;1.30;1.20;;;19.30;99.90;;;;;;5110722;28;20710;-80
2022/10/18 09:46:27;;;;;;;2.40;2.10;;;19.40;99.90;;;;;;5113110;28;20619;-81
2022/10/18 09:48:58;;;;;;;2.57;1.20;;;19.30;99.90;;;;;;5114575;28;20711;-84
2022/10/18 09:51:30;;;;;;;3.27;2.03;;;19.50;99.90;;;;;;5113939;28;20611;-81
2022/10/18 09:54:09;;;;;;;1.60;1.50;;;19.60;99.70;;;;;;5114245;28;20654;-84
2022/10/18 09:56:41;;;;;;;1.73;1.50;;;19.50;99.90;;;;;;5113555;28;20829;-82
2022/10/18 09:59:27;;;;;;;1.63;1.50;;;19.40;99.90;;;;;;5114349;28;20663;-81
2022/10/18 10:01:56;;;;;;;1.70;1.60;;;19.40;99.90;;;;;;5114268;28;20611;-83
2022/10/18 10:04:23;;;;;;;1.30;1.20;;;19.50;99.90;;;;;;5109064;28;20612;-82
2022/10/18 10:06:51;;;;;;;2.57;1.50;;;19.50;99.90;;;;;;5097163;28;20737;-83
2022/10/18 10:09:24;;;;;;;1.63;1.53;;;19.50;99.90;;;;;;5091968;28;21190;-84
2022/10/18 10:11:54;;;;;;;2.03;1.80;;;19.60;99.90;;;;;;5092954;28;20666;-82
2022/10/18 10:14:24;;;;;;;2.67;2.00;;;19.70;99.90;;;;;;5092174;28;20699;-83
2022/10/18 10:16:53;;;;;;;1.73;1.63;;;19.70;99.90;;;;;;5101665;28;20712;-82
2022/10/18 10:19:26;;;;;;;2.93;1.97;;;19.70;99.90;;;;;;5112976;28;20703;-83
2022/10/18 10:21:57;;;;;;;2.83;2.30;;;19.90;99.90;;;;;;5111072;28;20963;-83
2022/10/18 10:24:29;;;;;;;2.30;2.10;;;19.90;99.90;;;;;;5112512;28;20606;-84
2022/10/18 10:27:02;;;;;;;2.93;2.13;;;19.80;99.90;;;;;;5112718;28;20610;-83
2022/10/18 10:29:50;;;;;;;2.57;2.30;;;19.80;99.90;;;;;;5113264;28;20599;-83
2022/10/18 10:32:19;;;;;;;3.70;1.93;;;19.80;99.90;;;;;;5111168;28;21039;-82
2022/10/18 10:34:47;;;;;;;2.40;1.83;;;19.70;99.90;;;;;;5112175;28;21454;-82
2022/10/18 10:37:30;;;;;;;1.77;1.60;;;19.70;99.90;;;;;;5112750;28;21489;-84
2022/10/18 10:40:18;;;;;;;6.33;2.37;;;19.60;99.90;;;;;;5104874;28;20668;-82
2022/10/18 10:42:59;;;;;;;2.78;2.55;;;19.60;99.90;;;;;;5101694;28;20778;-84
2022/10/18 10:45:29;;;;;;;3.43;2.20;;;19.60;99.90;;;;;;5113055;28;20205;-81
2022/10/18 10:48:04;;;;;;;2.53;2.10;;;19.50;99.90;;;;;;5093483;28;20836;-82
2022/10/18 10:50:34;;;;;;;2.13;2.03;;;19.50;99.90;;;;;;5104139;28;20570;-82
2022/10/18 10:53:01;;;;;;;2.20;2.00;;;19.50;99.90;;;;;;5105108;27;20639;-82
2022/10/18 10:55:34;;;;;;;1.70;1.60;;;19.50;99.90;;;;;;5108689;28;20675;-83
2022/10/18 10:58:01;;;;;;;1.80;1.70;;;19.40;99.90;;;;;;5096768;27;20635;-83
2022/10/18 11:00:45;;;;;;;5.60;1.70;;;19.50;99.90;;;;;;5112197;28;20607;-81
2022/10/18 11:03:15;;;;;;;2.00;1.90;;;19.50;99.90;;;;;;5096215;28;20623;-84
2022/10/18 11:05:46;;;;;;;3.23;1.63;;;19.50;99.90;;;;;;5117532;27;20677;-82
2022/10/18 11:08:16;;;;;;;1.30;1.20;;;19.50;99.90;;;;;;5131208;27;20653;-83
2022/10/18 11:10:56;;;;;;;2.03;1.93;;;19.50;99.90;;;;;;5113156;28;20608;-82
2022/10/18 11:13:31;;;;;;;1.70;1.50;;;19.60;99.90;;;;;;5113422;28;20715;-81
2022/10/18 11:16:04;;;;;;;2.10;1.80;;;19.60;99.90;;;;;;5112845;28;21217;-82
2022/10/18 11:18:33;;;;;;;2.63;2.00;;;19.60;99.90;;;;;;5112718;28;20718;-84
2022/10/18 11:21:06;;;;;;;2.83;1.93;;;19.60;99.90;;;;;;5113005;28;20651;-81
2022/10/18 11:23:35;;;;;;;2.97;2.40;;;19.60;99.90;;;;;;5112817;28;20722;-83
2022/10/18 11:26:26;;;;;;;2.20;2.00;;;19.60;99.90;;;;;;5112587;28;21052;-82
2022/10/18 11:29:09;;;;;;;5.43;2.40;;;19.50;99.90;;;;;;5112349;28;20630;-84
2022/10/18 11:31:43;;;;;;;2.13;1.90;;;19.50;99.90;;;;;;5112875;28;20631;-84
2022/10/18 11:34:27;;;;;;;3.03;2.30;;;19.50;99.90;;;;;;5112346;28;20726;-83
2022/10/18 11:37:02;;;;;;;2.90;2.07;;;19.60;99.90;;;;;;5112325;28;20755;-82
2022/10/18 11:39:38;;;;;;;1.97;1.87;;;19.70;99.90;;;;;;5112872;28;21010;-84
2022/10/18 11:42:16;;;;;;;3.07;2.00;;;19.70;99.90;;;;;;5113117;28;20619;-82
2022/10/18 11:44:50;;;;;;;1.63;1.53;;;20.00;99.90;;;;;;5113299;28;20610;-83
2022/10/18 11:47:26;;;;;;;1.60;1.50;;;19.90;99.90;;;;;;5111545;28;20614;-82
2022/10/18 11:50:06;;;;;;;2.43;1.73;;;19.90;99.90;;;;;;5111865;28;20703;-83
2022/10/18 11:52:42;;;;;;;2.50;2.07;;;19.90;99.90;;;;;;5112285;28;20603;-82
2022/10/18 11:55:23;;;;;;;2.07;1.80;;;19.80;99.90;;;;;;5110648;28;20639;-82
2022/10/18 11:57:57;;;;;;;2.50;2.20;;;19.70;99.90;;;;;;5100813;28;20744;-84
2022/10/18 12:00:47;;;;;;;3.10;2.07;;;19.60;99.90;;;;;;5092124;28;21158;-82
2022/10/18 12:03:39;;;;;;;2.27;2.07;;;19.50;99.90;;;;;;5091690;28;20623;-84
2022/10/18 12:06:12;;;;;;;2.03;1.87;;;19.50;99.90;;;;;;5090947;28;20728;-84
2022/10/18 12:08:44;;;;;;;2.50;2.30;;;19.60;99.90;;;;;;5091418;28;21037;-83
2022/10/18 12:11:15;;;;;;;3.73;2.30;;;19.50;99.90;;;;;;5091498;28;20612;-82
2022/10/18 12:13:48;;;;;;;2.43;2.23;;;19.70;99.90;;;;;;5091240;28;20644;-82
2022/10/18 12:16:16;;;;;;;2.53;2.33;;;19.80;99.90;;;;;;5097349;28;21384;-83
2022/10/18 12:18:52;;;;;;;1.70;1.60;;;19.90;99.90;;;;;;5110921;28;20688;-82
2022/10/18 12:21:21;;;;;;;2.60;1.43;;;20.00;99.90;;;;;;5112552;28;20727;-82
2022/10/18 12:23:55;;;;;;;5.50;2.03;;;20.20;99.90;;;;;;5112619;28;20729;-82
2022/10/18 12:26:22;;;;;;;3.13;2.43;;;20.20;99.90;;;;;;5112400;28;20640;-83
2022/10/18 12:28:58;;;;;;;2.13;2.03;;;20.20;99.90;;;;;;5110763;28;20943;-83
2022/10/18 12:31:32;;;;;;;1.80;1.70;;;20.30;99.90;;;;;;5111485;28;20676;-82
2022/10/18 12:34:04;;;;;;;1.57;1.47;;;20.30;99.90;;;;;;5112383;28;20627;-84
2022/10/18 12:36:55;;;;;;;2.27;2.07;;;20.40;99.70;;;;;;5111660;28;20662;-83
2022/10/18 12:39:27;;;;;;;1.10;1.00;;;20.30;99.60;;;;;;5109149;28;20734;-82
2022/10/18 12:41:55;;;;;;;1.83;1.60;;;20.10;99.70;;;;;;5111900;28;20681;-83
2022/10/18 12:44:28;;;;;;;3.60;1.97;;;20.20;99.90;;;;;;5111810;28;20711;-84
2022/10/18 12:46:57;;;;;;;1.50;1.40;;;20.20;99.90;;;;;;5111085;28;20622;-83
2022/10/18 12:49:28;;;;;;;1.43;1.10;;;20.20;99.80;;;;;;5111248;28;20732;-82
2022/10/18 12:51:58;;;;;;;0.90;0.80;;;20.30;99.70;;;;;;5111374;28;20719;-82
2022/10/18 12:54:29;;;;;;;2.63;1.10;;;20.20;99.40;;;;;;5112827;28;20987;-82
2022/10/18 12:56:57;;;;;;;6.00;1.33;;;;;;;;;;5109299;28;20759;-82
2022/10/18 12:59:52;;;;;;;0.63;0.60;;;20.40;98.30;;;;;;5104340;28;20673;-83
2022/10/18 13:02:25;;;;;;;2.00;1.57;;;20.40;98.90;;;;;;5111732;28;20624;-83
2022/10/18 13:04:52;;;;;;;0.97;0.97;;;20.40;99.50;;;;;;5112171;28;20676;-84
2022/10/18 13:07:22;;;;;;;0.90;0.90;;;20.40;99.20;;;;;;5111137;28;20655;-83
2022/10/18 13:10:34;;;;;;;1.10;1.00;;;20.20;99.50;;;;;;5112470;28;20607;-83
2022/10/18 13:13:22;;;;;;;1.33;1.23;;;20.00;99.20;;;;;;5054079;28;20999;-84